Time;durP1;ratioP1;P1;durP2;ratioP2;P2;SDS_P1;SDS_P2;PMS_P1;PMS_P2;Temp;Humidity;BMP_temperature;BMP_pressure;BME280_temperature;BME280_humidity;BME280_pressure;Samples;Min_cycle;Max_cycle;Signal;HPM_P1;HPM_P2
2022/03/18 00:00:24;;;;;;;8.53;5.40;;;13.20;51.40;;;;;;5099627;27;20438;-88
2022/03/18 00:02:53;;;;;;;9.33;5.10;;;13.10;51.10;;;;;;5087016;27;20456;-87
2022/03/18 00:05:20;;;;;;;8.63;5.33;;;12.70;51.40;;;;;;5113424;27;20480;-87
2022/03/18 00:07:47;;;;;;;7.67;6.00;;;12.70;52.20;;;;;;5111839;27;20457;-87
2022/03/18 00:10:17;;;;;;;10.33;5.60;;;12.70;52.10;;;;;;5131279;27;21221;-87
2022/03/18 00:12:44;;;;;;;8.80;5.50;;;12.90;52.00;;;;;;5133079;27;20510;-87
2022/03/18 00:15:14;;;;;;;7.53;5.40;;;12.90;51.80;;;;;;5105410;27;20476;-87
2022/03/18 00:17:42;;;;;;;11.13;5.87;;;13.00;51.50;;;;;;5110921;27;20442;-87
2022/03/18 00:20:11;;;;;;;10.43;5.37;;;13.00;51.60;;;;;;5129502;27;20442;-88
2022/03/18 00:22:38;;;;;;;7.17;5.40;;;12.90;51.40;;;;;;5103560;27;20482;-88
2022/03/18 00:25:06;;;;;;;9.70;5.53;;;12.80;51.70;;;;;;5111962;27;20478;-88
2022/03/18 00:27:35;;;;;;;7.67;4.90;;;12.70;51.90;;;;;;5096095;27;20477;-87
2022/03/18 00:30:02;;;;;;;5.70;4.97;;;12.70;52.10;;;;;;5102405;27;20893;-89
2022/03/18 00:32:29;;;;;;;9.93;5.10;;;12.80;52.10;;;;;;5113512;27;20483;-90
2022/03/18 00:34:56;;;;;;;8.47;5.37;;;12.90;51.80;;;;;;5112884;27;20457;-87
2022/03/18 00:37:23;;;;;;;6.10;4.90;;;12.90;51.80;;;;;;5130005;27;20456;-88
2022/03/18 00:39:50;;;;;;;8.93;5.23;;;12.90;51.90;;;;;;5114006;27;20493;-88
2022/03/18 00:42:17;;;;;;;5.50;4.80;;;12.90;51.80;;;;;;5088225;27;20430;-87
2022/03/18 00:44:46;;;;;;;5.87;4.93;;;12.70;51.80;;;;;;5081716;27;20477;-88
2022/03/18 00:52:39;;;;;;;6.10;4.17;;;12.70;52.10;;;;;;5113464;27;20453;-87
2022/03/18 00:55:06;;;;;;;6.87;5.30;;;12.80;52.00;;;;;;5112581;27;20464;-88
2022/03/18 00:57:34;;;;;;;12.10;5.40;;;12.90;52.20;;;;;;5122020;27;20452;-87
2022/03/18 01:00:02;;;;;;;10.10;5.30;;;12.80;51.60;;;;;;5085581;27;20457;-88
2022/03/18 01:02:29;;;;;;;7.23;4.70;;;12.70;52.10;;;;;;5113613;27;20859;-87
2022/03/18 01:04:56;;;;;;;6.90;5.10;;;12.60;52.20;;;;;;5112847;27;20533;-88
2022/03/18 01:07:23;;;;;;;6.53;4.70;;;12.50;52.00;;;;;;5095119;27;20968;-87
2022/03/18 01:09:50;;;;;;;5.80;4.70;;;12.50;52.20;;;;;;5126574;27;20453;-88
2022/03/18 01:12:17;;;;;;;7.60;5.10;;;12.60;52.00;;;;;;5110942;27;20457;-88
2022/03/18 01:14:44;;;;;;;10.73;5.90;;;12.50;52.20;;;;;;5110030;27;20473;-86
2022/03/18 01:17:13;;;;;;;11.93;5.07;;;12.60;51.90;;;;;;5079901;27;20453;-87
2022/03/18 01:19:40;;;;;;;11.80;5.40;;;12.60;52.00;;;;;;5109158;27;20446;-87
2022/03/18 01:22:09;;;;;;;13.50;5.17;;;12.70;52.10;;;;;;5100782;27;20545;-87
2022/03/18 01:24:36;;;;;;;7.50;5.50;;;12.50;52.10;;;;;;5128476;27;20473;-86
2022/03/18 01:27:04;;;;;;;9.37;5.37;;;12.40;52.60;;;;;;5111451;27;20465;-87
2022/03/18 01:29:31;;;;;;;7.63;4.30;;;12.30;52.50;;;;;;5112889;27;20444;-87
2022/03/18 01:31:58;;;;;;;8.70;5.10;;;12.30;52.70;;;;;;5097885;27;20434;-87
2022/03/18 01:34:27;;;;;;;7.03;4.20;;;12.20;53.20;;;;;;5111518;27;20481;-88
2022/03/18 01:36:54;;;;;;;9.53;5.07;;;12.40;53.00;;;;;;5132189;27;20838;-87
2022/03/18 01:39:22;;;;;;;6.60;4.50;;;12.50;52.60;;;;;;5111829;27;20458;-87
2022/03/18 01:41:50;;;;;;;7.00;4.47;;;12.50;52.50;;;;;;5095491;27;20449;-87
2022/03/18 01:44:18;;;;;;;8.03;4.57;;;12.50;52.20;;;;;;5114934;27;20564;-87
2022/03/18 01:46:45;;;;;;;9.40;5.20;;;12.40;52.40;;;;;;5114541;27;20486;-86
2022/03/18 01:49:12;;;;;;;8.40;4.73;;;12.10;52.80;;;;;;5103676;27;21178;-88
2022/03/18 01:51:41;;;;;;;6.00;4.33;;;12.00;53.20;;;;;;5129986;27;20515;-87
2022/03/18 01:56:53;;;;;;;9.97;5.43;;;12.20;53.00;;;;;;5110247;27;21273;-88
2022/03/18 01:59:20;;;;;;;7.33;4.77;;;12.40;52.80;;;;;;5110307;27;20442;-89
2022/03/18 02:01:47;;;;;;;7.27;4.87;;;12.50;52.50;;;;;;5113188;27;20461;-87
2022/03/18 02:04:14;;;;;;;5.53;4.23;;;12.50;52.10;;;;;;5131074;27;20461;-88
2022/03/18 02:06:43;;;;;;;7.70;4.87;;;12.60;52.20;;;;;;5112599;27;20501;-87
2022/03/18 02:09:10;;;;;;;5.00;3.87;;;12.60;52.00;;;;;;5120025;27;20963;-86
2022/03/18 02:11:38;;;;;;;7.40;5.30;;;12.60;52.10;;;;;;5129230;27;20449;-86
2022/03/18 02:14:05;;;;;;;6.77;4.43;;;12.60;51.70;;;;;;5111583;27;20498;-88
2022/03/18 02:16:32;;;;;;;5.80;4.70;;;12.60;51.70;;;;;;5103746;27;20445;-87
2022/03/18 02:18:59;;;;;;;8.60;4.87;;;12.70;51.90;;;;;;5111627;27;20460;-87
2022/03/18 02:21:28;;;;;;;6.33;4.60;;;12.60;51.70;;;;;;5093056;27;20489;-87
2022/03/18 02:23:57;;;;;;;6.30;4.50;;;12.50;51.50;;;;;;5111034;27;20460;-87
2022/03/18 02:26:24;;;;;;;6.03;4.60;;;12.50;52.00;;;;;;5104884;27;20452;-87
2022/03/18 02:28:52;;;;;;;7.07;4.97;;;12.50;51.80;;;;;;5099617;27;20506;-88
2022/03/18 02:31:20;;;;;;;7.80;4.33;;;12.60;51.70;;;;;;5115029;27;20495;-86
2022/03/18 02:33:47;;;;;;;11.37;5.37;;;12.50;51.60;;;;;;5112814;27;20481;-88
2022/03/18 02:36:14;;;;;;;6.97;3.90;;;12.50;51.60;;;;;;5115427;27;20510;-87
2022/03/18 02:38:41;;;;;;;8.80;5.00;;;12.30;51.90;;;;;;5114475;27;20686;-87
2022/03/18 02:41:12;;;;;;;7.90;4.57;;;12.40;52.00;;;;;;5122899;27;20516;-87
2022/03/18 02:43:39;;;;;;;5.27;3.73;;;12.40;51.90;;;;;;5105784;27;20581;-88
2022/03/18 02:46:06;;;;;;;7.10;4.40;;;12.40;51.90;;;;;;5100657;27;20449;-87
2022/03/18 02:48:33;;;;;;;6.93;4.43;;;12.40;51.80;;;;;;5114361;27;20505;-87
2022/03/18 02:51:00;;;;;;;6.57;4.80;;;12.50;52.20;;;;;;5080164;27;20453;-87
2022/03/18 02:53:28;;;;;;;7.07;4.83;;;12.60;51.50;;;;;;5099995;27;20448;-87
2022/03/18 02:55:55;;;;;;;10.60;5.23;;;12.50;51.30;;;;;;5132565;27;20445;-88
2022/03/18 02:58:23;;;;;;;10.27;4.80;;;12.40;51.60;;;;;;5106859;27;20438;-87
2022/03/18 03:00:51;;;;;;;7.20;4.50;;;12.50;51.80;;;;;;5088887;27;20445;-87
2022/03/18 03:03:18;;;;;;;15.63;5.10;;;12.60;51.50;;;;;;5133496;27;20755;-88
2022/03/18 03:08:31;;;;;;;5.50;4.10;;;12.40;51.60;;;;;;5115685;27;20897;-87
2022/03/18 03:10:58;;;;;;;8.60;5.27;;;12.30;51.80;;;;;;5122385;27;20491;-87
2022/03/18 03:13:26;;;;;;;7.10;4.57;;;12.20;51.90;;;;;;5114778;27;20536;-88
2022/03/18 03:15:53;;;;;;;10.23;4.97;;;12.10;52.10;;;;;;5116516;27;20454;-88
2022/03/18 03:18:20;;;;;;;13.30;5.07;;;12.00;52.00;;;;;;5095217;27;20478;-88
2022/03/18 03:20:49;;;;;;;9.13;4.37;;;12.10;52.20;;;;;;5113275;27;20455;-87
2022/03/18 03:23:16;;;;;;;10.50;4.70;;;12.00;51.90;;;;;;5114518;27;20453;-86
2022/03/18 03:25:43;;;;;;;9.30;4.70;;;12.10;52.00;;;;;;5113441;27;20461;-87
2022/03/18 03:28:10;;;;;;;9.17;4.77;;;12.20;51.50;;;;;;5116627;27;20466;-86
2022/03/18 03:30:38;;;;;;;14.67;4.80;;;12.10;51.50;;;;;;5132636;27;20920;-88
2022/03/18 03:33:05;;;;;;;12.00;5.17;;;12.00;51.50;;;;;;5101655;27;20537;-88
2022/03/18 03:35:33;;;;;;;12.80;3.93;;;11.90;51.50;;;;;;5104347;27;20911;-87
2022/03/18 03:38:00;;;;;;;7.47;4.37;;;12.00;51.50;;;;;;5110757;27;20539;-88
2022/03/18 03:40:27;;;;;;;8.60;4.40;;;12.00;51.30;;;;;;5088773;27;20995;-87
2022/03/18 03:42:54;;;;;;;8.73;4.23;;;12.10;51.20;;;;;;5115082;27;20452;-88
2022/03/18 03:45:21;;;;;;;11.07;3.80;;;12.20;51.10;;;;;;5095811;27;20457;-86
2022/03/18 03:47:49;;;;;;;9.73;4.47;;;12.10;50.80;;;;;;5121372;27;20462;-87
2022/03/18 03:50:17;;;;;;;9.03;4.20;;;11.90;50.90;;;;;;5111315;27;20453;-87
2022/03/18 03:52:45;;;;;;;11.27;4.60;;;11.70;51.20;;;;;;5132690;27;20451;-87
2022/03/18 03:55:13;;;;;;;5.80;3.80;;;11.70;51.30;;;;;;5122780;27;20479;-87
2022/03/18 03:57:40;;;;;;;7.83;4.00;;;11.60;51.30;;;;;;5097325;27;20453;-87
2022/03/18 04:00:09;;;;;;;12.23;3.63;;;11.50;51.70;;;;;;5114155;27;20452;-87
2022/03/18 04:02:37;;;;;;;8.20;4.00;;;11.60;51.40;;;;;;5087455;27;20474;-87
2022/03/18 04:05:07;;;;;;;8.23;3.97;;;11.40;51.50;;;;;;5114573;27;20464;-86
2022/03/18 04:07:34;;;;;;;10.17;4.87;;;11.50;51.50;;;;;;5116221;27;20438;-87
2022/03/18 04:10:02;;;;;;;9.13;3.80;;;11.40;51.20;;;;;;5104090;27;20463;-87
2022/03/18 04:12:29;;;;;;;11.53;4.43;;;11.70;51.40;;;;;;5133623;27;20536;-87
2022/03/18 04:14:56;;;;;;;9.10;3.23;;;11.80;51.00;;;;;;5099715;27;20472;-86
2022/03/18 04:17:26;;;;;;;9.20;3.40;;;12.00;50.80;;;;;;5132651;27;20941;-87
2022/03/18 04:19:53;;;;;;;5.43;3.57;;;12.00;50.20;;;;;;5111965;27;20442;-87
2022/03/18 04:22:21;;;;;;;8.00;4.13;;;11.60;50.60;;;;;;5114052;27;20504;-87
2022/03/18 04:24:48;;;;;;;8.77;3.47;;;11.50;51.10;;;;;;5111767;27;21026;-88
2022/03/18 04:27:15;;;;;;;7.17;4.10;;;11.60;51.10;;;;;;5112848;27;20475;-88
2022/03/18 04:29:42;;;;;;;7.30;4.00;;;11.60;50.70;;;;;;5110974;27;20526;-87
2022/03/18 04:32:11;;;;;;;11.13;4.57;;;11.60;50.90;;;;;;5094159;27;20440;-86
2022/03/18 04:34:39;;;;;;;8.40;4.50;;;11.60;50.80;;;;;;5113292;27;20458;-87
2022/03/18 04:37:06;;;;;;;7.60;3.60;;;11.50;50.80;;;;;;5106595;27;20446;-87
2022/03/18 04:39:35;;;;;;;8.93;3.87;;;11.30;51.10;;;;;;5097419;27;20807;-88
2022/03/18 04:42:02;;;;;;;8.67;3.50;;;11.00;51.90;;;;;;5095781;27;20476;-88
2022/03/18 04:44:29;;;;;;;6.40;3.70;;;11.10;51.80;;;;;;5113319;27;20469;-87
2022/03/18 04:46:56;;;;;;;6.80;4.60;;;11.20;51.80;;;;;;5098246;27;20456;-88
2022/03/18 04:49:23;;;;;;;7.37;3.70;;;11.30;51.70;;;;;;5132864;27;20475;-87
2022/03/18 04:51:50;;;;;;;9.13;3.97;;;11.30;51.50;;;;;;5129486;27;20476;-88
2022/03/18 04:54:17;;;;;;;10.60;4.27;;;11.50;51.20;;;;;;5112477;27;20465;-87
2022/03/18 04:59:30;;;;;;;7.27;3.90;;;11.80;50.70;;;;;;5112930;27;20520;-87
2022/03/18 05:01:57;;;;;;;11.43;4.00;;;11.80;50.90;;;;;;5111461;27;20557;-88
2022/03/18 05:04:24;;;;;;;13.57;4.00;;;11.80;50.30;;;;;;5113015;27;20460;-87
2022/03/18 05:06:51;;;;;;;6.60;4.57;;;11.80;50.40;;;;;;5124779;27;20548;-89
2022/03/18 05:09:18;;;;;;;11.63;4.10;;;11.70;50.30;;;;;;5094673;27;20465;-88
2022/03/18 05:11:46;;;;;;;8.30;3.97;;;11.60;50.70;;;;;;5094256;27;20441;-86
2022/03/18 05:14:14;;;;;;;8.90;3.27;;;11.40;51.20;;;;;;5111455;27;21104;-90
2022/03/18 05:16:42;;;;;;;10.47;4.00;;;11.40;51.20;;;;;;5126280;27;20446;-87
2022/03/18 05:19:09;;;;;;;18.63;3.77;;;11.60;50.90;;;;;;5112818;27;20518;-89
2022/03/18 05:21:36;;;;;;;7.67;4.23;;;11.60;50.60;;;;;;5101717;27;20454;-87
2022/03/18 05:24:05;;;;;;;11.80;3.37;;;11.50;51.00;;;;;;5114026;27;20476;-88
2022/03/18 05:26:32;;;;;;;5.47;4.10;;;11.60;50.90;;;;;;5100924;27;20449;-88
2022/03/18 05:29:01;;;;;;;6.63;3.73;;;11.40;50.70;;;;;;5102647;27;20469;-89
2022/03/18 05:31:28;;;;;;;9.00;3.17;;;11.50;50.80;;;;;;5134242;27;20545;-89
2022/03/18 05:33:55;;;;;;;9.80;3.83;;;11.40;50.90;;;;;;5083608;27;21033;-86
2022/03/18 05:36:22;;;;;;;7.20;3.77;;;11.30;51.10;;;;;;5096466;28;20446;-88
2022/03/18 05:38:49;;;;;;;9.30;4.13;;;11.30;51.00;;;;;;5122430;27;20438;-88
2022/03/18 05:41:16;;;;;;;20.80;3.40;;;11.20;51.30;;;;;;5097954;27;20438;-88
2022/03/18 05:43:43;;;;;;;5.10;3.50;;;11.30;51.30;;;;;;5119497;27;20473;-88
2022/03/18 05:46:12;;;;;;;9.40;2.93;;;11.40;51.20;;;;;;5112863;27;21314;-88
2022/03/18 05:48:39;;;;;;;10.03;3.60;;;11.30;50.90;;;;;;5112147;27;21051;-88
2022/03/18 05:51:06;;;;;;;6.97;3.60;;;11.50;51.10;;;;;;5098227;27;20445;-87
2022/03/18 05:53:33;;;;;;;9.43;3.73;;;11.50;50.70;;;;;;5113525;27;20448;-88
2022/03/18 05:58:46;;;;;;;6.53;3.23;;;11.20;51.10;;;;;;5111668;27;20429;-88
2022/03/18 06:01:14;;;;;;;4.20;2.43;;;11.20;51.50;;;;;;5105595;27;20536;-89
2022/03/18 06:03:42;;;;;;;7.93;3.77;;;11.40;51.30;;;;;;5117822;27;20468;-88
2022/03/18 06:06:09;;;;;;;13.03;4.50;;;11.60;51.00;;;;;;5113259;27;20452;-87
2022/03/18 06:14:05;;;;;;;12.03;3.80;;;11.60;50.50;;;;;;5097437;27;20542;-87
2022/03/18 06:16:36;;;;;;;10.60;4.50;;;11.30;50.70;;;;;;5108438;27;21040;-88
2022/03/18 06:19:03;;;;;;;13.80;4.23;;;11.00;51.50;;;;;;5106039;27;20449;-87
2022/03/18 06:21:30;;;;;;;9.57;3.80;;;11.00;51.90;;;;;;5100151;27;20862;-88
2022/03/18 06:23:57;;;;;;;9.67;4.10;;;11.10;51.70;;;;;;5101110;27;20461;-88
2022/03/18 06:26:24;;;;;;;6.33;3.10;;;11.00;51.60;;;;;;5115911;27;20449;-88
2022/03/18 06:28:51;;;;;;;13.83;3.90;;;10.90;52.20;;;;;;5134591;27;20822;-88
2022/03/18 06:31:18;;;;;;;10.67;3.70;;;11.20;51.70;;;;;;5115976;27;20451;-88
2022/03/18 06:33:46;;;;;;;5.53;3.00;;;11.20;51.50;;;;;;5114161;27;20458;-87
2022/03/18 06:36:15;;;;;;;9.63;3.27;;;10.90;51.80;;;;;;5115118;27;20849;-87
2022/03/18 06:38:42;;;;;;;6.90;3.70;;;10.90;52.10;;;;;;5098089;27;20441;-89
2022/03/18 06:41:09;;;;;;;5.70;3.70;;;10.90;52.00;;;;;;5106405;27;20455;-88
2022/03/18 06:43:36;;;;;;;8.90;3.97;;;11.10;52.20;;;;;;5102354;27;20453;-90
2022/03/18 06:46:03;;;;;;;6.60;2.93;;;11.20;51.50;;;;;;5115451;27;20559;-88
2022/03/18 06:48:30;;;;;;;9.13;3.50;;;11.00;51.40;;;;;;5080340;27;20457;-89
2022/03/18 06:50:59;;;;;;;8.20;3.27;;;11.00;52.10;;;;;;5089684;27;20448;-88
2022/03/18 06:53:27;;;;;;;8.60;3.60;;;11.30;52.20;;;;;;5084113;27;21043;-88
2022/03/18 06:55:54;;;;;;;10.30;4.27;;;11.30;51.10;;;;;;5099014;27;20974;-90
2022/03/18 06:58:21;;;;;;;5.63;3.17;;;11.10;51.70;;;;;;5089030;27;20477;-89
2022/03/18 07:00:48;;;;;;;24.40;11.43;;;11.00;51.70;;;;;;5103192;27;20481;-88
2022/03/18 07:03:16;;;;;;;12.87;4.50;;;11.00;52.10;;;;;;5089968;27;20442;-87
2022/03/18 07:05:44;;;;;;;36.73;12.93;;;11.40;51.50;;;;;;5106158;27;20834;-88
2022/03/18 07:08:12;;;;;;;9.63;5.13;;;11.30;50.80;;;;;;5091196;27;20460;-88
2022/03/18 07:10:40;;;;;;;16.90;6.13;;;11.20;50.70;;;;;;5116172;27;20468;-89
2022/03/18 07:13:08;;;;;;;7.23;5.00;;;11.20;51.30;;;;;;5113531;27;20545;-88
2022/03/18 07:15:36;;;;;;;6.03;4.37;;;11.40;51.50;;;;;;5083907;27;20635;-88
2022/03/18 07:18:03;;;;;;;8.20;4.83;;;11.60;50.50;;;;;;5104173;27;20448;-88
2022/03/18 07:20:33;;;;;;;12.30;7.00;;;11.70;50.40;;;;;;5099547;27;20449;-89
2022/03/18 07:23:07;;;;;;;10.93;4.67;;;11.60;50.30;;;;;;5104909;27;20434;-88
2022/03/18 07:25:36;;;;;;;12.40;7.30;;;11.80;49.90;;;;;;5105627;27;20996;-89
2022/03/18 07:28:04;;;;;;;14.93;5.13;;;11.30;50.60;;;;;;5096300;27;20446;-88
2022/03/18 07:30:31;;;;;;;8.33;5.10;;;11.50;50.60;;;;;;5117056;27;20489;-88
2022/03/18 07:32:59;;;;;;;9.37;3.50;;;11.50;50.40;;;;;;5132998;27;20502;-88
2022/03/18 07:35:26;;;;;;;7.73;4.67;;;11.50;50.40;;;;;;5115647;27;21079;-88
2022/03/18 07:37:53;;;;;;;9.97;3.93;;;11.40;50.60;;;;;;5133033;27;20445;-88
2022/03/18 07:40:20;;;;;;;8.47;4.17;;;11.30;50.60;;;;;;5117456;27;20448;-88
2022/03/18 07:42:50;;;;;;;9.37;3.70;;;11.50;50.70;;;;;;5133367;27;20441;-88
2022/03/18 07:45:19;;;;;;;9.57;3.13;;;11.60;50.20;;;;;;5123441;27;20478;-88
2022/03/18 07:47:49;;;;;;;6.93;4.17;;;11.90;49.70;;;;;;5112654;27;21412;-89
2022/03/18 07:50:21;;;;;;;5.80;3.57;;;11.80;49.70;;;;;;5122058;27;20465;-87
2022/03/18 07:52:50;;;;;;;5.93;2.90;;;11.80;49.80;;;;;;5112571;27;20456;-88
2022/03/18 07:55:18;;;;;;;6.73;3.70;;;11.90;49.30;;;;;;5095058;27;20465;-87
2022/03/18 07:57:45;;;;;;;8.57;3.17;;;12.00;48.90;;;;;;5130130;27;20905;-87
2022/03/18 08:00:15;;;;;;;8.47;5.70;;;11.90;49.00;;;;;;5114487;27;20445;-88
2022/03/18 08:02:47;;;;;;;7.87;4.20;;;12.10;49.30;;;;;;5095679;27;20602;-88
2022/03/18 08:05:15;;;;;;;11.80;3.40;;;12.30;48.90;;;;;;5113844;27;20832;-87
2022/03/18 08:07:44;;;;;;;4.83;3.20;;;12.40;48.30;;;;;;5094395;27;20478;-88
2022/03/18 08:10:11;;;;;;;7.10;3.60;;;12.40;47.90;;;;;;5087796;27;20466;-87
2022/03/18 08:12:40;;;;;;;5.80;3.60;;;12.40;48.20;;;;;;5104856;27;21144;-88
2022/03/18 08:15:10;;;;;;;6.73;4.13;;;12.10;48.30;;;;;;5107748;27;20490;-86
2022/03/18 08:17:39;;;;;;;8.27;3.60;;;12.00;48.60;;;;;;5111899;27;20465;-87
2022/03/18 08:20:08;;;;;;;7.83;3.67;;;11.90;48.50;;;;;;5094967;27;21219;-85
2022/03/18 08:22:36;;;;;;;6.50;3.40;;;11.80;48.40;;;;;;5095041;27;20462;-85
2022/03/18 08:25:04;;;;;;;13.60;3.47;;;11.70;48.60;;;;;;5129361;27;20968;-87
2022/03/18 08:27:32;;;;;;;15.40;4.90;;;11.80;48.40;;;;;;5127950;27;20441;-88
2022/03/18 08:29:59;;;;;;;6.27;3.20;;;11.80;49.10;;;;;;5085155;27;20461;-87
2022/03/18 08:32:27;;;;;;;8.20;3.30;;;11.90;48.70;;;;;;5128997;27;20488;-87
2022/03/18 08:34:56;;;;;;;7.00;3.07;;;12.10;48.90;;;;;;5113489;27;20472;-87
2022/03/18 08:40:07;;;;;;;6.20;3.27;;;12.00;48.20;;;;;;5097567;27;20754;-88
2022/03/18 08:42:34;;;;;;;4.93;2.57;;;12.20;48.10;;;;;;5113437;27;20520;-87
2022/03/18 08:45:01;;;;;;;5.03;3.37;;;12.20;47.40;;;;;;5110409;27;20552;-87
2022/03/18 08:47:28;;;;;;;8.30;3.50;;;12.30;47.40;;;;;;5095661;27;20461;-88
2022/03/18 08:49:57;;;;;;;5.03;3.30;;;12.30;46.90;;;;;;5111601;27;20468;-87
2022/03/18 08:52:24;;;;;;;6.13;2.97;;;12.30;47.40;;;;;;5130603;27;20850;-87
2022/03/18 08:54:51;;;;;;;6.00;4.33;;;12.10;47.40;;;;;;5112760;27;20483;-87
2022/03/18 08:57:18;;;;;;;6.03;3.60;;;12.00;48.70;;;;;;5132442;27;20449;-87
2022/03/18 08:59:45;;;;;;;7.03;3.73;;;12.00;48.00;;;;;;5095022;27;20425;-85
2022/03/18 09:02:12;;;;;;;4.90;3.07;;;12.30;48.00;;;;;;5129699;27;20483;-87
2022/03/18 09:04:39;;;;;;;8.37;3.73;;;12.50;47.80;;;;;;5100965;27;20470;-87
2022/03/18 09:07:07;;;;;;;6.63;2.97;;;12.60;47.50;;;;;;5096240;27;20474;-87
2022/03/18 09:09:34;;;;;;;8.73;3.00;;;12.70;47.10;;;;;;5094429;27;20473;-87
2022/03/18 09:12:01;;;;;;;9.67;3.50;;;12.50;46.60;;;;;;5128313;27;20448;-87
2022/03/18 09:14:28;;;;;;;12.13;3.67;;;12.20;47.30;;;;;;5109643;27;20466;-88
2022/03/18 09:16:55;;;;;;;11.73;3.47;;;12.40;47.60;;;;;;5112718;27;20457;-87
2022/03/18 09:19:23;;;;;;;6.30;3.27;;;12.50;47.40;;;;;;5110420;27;20447;-86
2022/03/18 09:21:50;;;;;;;5.17;3.57;;;12.50;47.00;;;;;;5111521;27;20457;-87
2022/03/18 09:24:19;;;;;;;7.00;3.43;;;12.60;46.60;;;;;;5109382;27;20584;-87
2022/03/18 09:26:46;;;;;;;6.53;3.47;;;12.50;47.10;;;;;;5128671;27;20537;-87
2022/03/18 09:29:13;;;;;;;7.60;3.50;;;12.60;46.90;;;;;;5102413;27;20462;-87
2022/03/18 09:31:40;;;;;;;6.13;3.70;;;12.40;47.20;;;;;;5128813;27;20451;-87
2022/03/18 09:34:07;;;;;;;5.80;3.90;;;12.70;46.90;;;;;;5095447;27;20564;-85
2022/03/18 09:36:34;;;;;;;7.73;5.00;;;13.10;46.40;;;;;;5110889;27;20456;-88
2022/03/18 09:39:01;;;;;;;8.80;3.63;;;13.30;45.80;;;;;;5116671;27;20838;-88
2022/03/18 09:41:30;;;;;;;7.80;3.43;;;13.20;46.00;;;;;;5095608;27;20445;-87
2022/03/18 09:43:57;;;;;;;9.20;4.40;;;13.30;46.10;;;;;;5126821;27;20972;-84
2022/03/18 09:46:25;;;;;;;9.83;5.17;;;13.30;46.00;;;;;;5110322;27;20457;-85
2022/03/18 09:48:52;;;;;;;11.23;3.83;;;13.30;46.90;;;;;;5094842;27;21090;-86
2022/03/18 09:51:20;;;;;;;10.67;3.63;;;13.60;45.80;;;;;;5130360;27;20465;-86
2022/03/18 09:53:47;;;;;;;7.17;3.97;;;13.70;45.80;;;;;;5109732;27;20464;-86
2022/03/18 09:56:14;;;;;;;8.07;3.40;;;13.80;45.10;;;;;;5129473;27;21131;-89
2022/03/18 09:58:42;;;;;;;5.60;4.10;;;13.70;45.20;;;;;;5101662;27;20442;-87
2022/03/18 10:01:09;;;;;;;7.10;3.43;;;13.60;45.10;;;;;;5129471;27;20453;-86
2022/03/18 10:03:40;;;;;;;5.00;3.50;;;13.80;45.30;;;;;;5128196;27;20457;-87
2022/03/18 10:06:11;;;;;;;5.50;3.57;;;14.00;45.80;;;;;;5117302;27;20461;-87
2022/03/18 10:08:49;;;;;;;7.17;3.97;;;14.20;45.30;;;;;;5116585;27;20456;-86
2022/03/18 10:11:18;;;;;;;8.40;3.73;;;14.30;43.70;;;;;;5099007;27;20884;-86
2022/03/18 10:13:53;;;;;;;7.93;4.80;;;14.10;44.60;;;;;;5127658;27;20449;-85
2022/03/18 10:16:32;;;;;;;8.70;5.00;;;14.10;45.10;;;;;;5125927;27;20437;-88
2022/03/18 10:18:59;;;;;;;6.23;3.70;;;14.40;45.40;;;;;;5128094;27;21013;-88
2022/03/18 10:21:26;;;;;;;6.33;3.30;;;14.70;43.90;;;;;;5076978;27;20470;-90
2022/03/18 10:24:04;;;;;;;10.53;3.60;;;14.90;44.30;;;;;;5092918;27;20569;-89
2022/03/18 10:26:35;;;;;;;11.73;3.80;;;14.90;42.80;;;;;;5097099;27;20509;-87
2022/03/18 10:29:04;;;;;;;11.30;4.50;;;14.70;43.50;;;;;;5125043;27;20458;-87
2022/03/18 10:31:32;;;;;;;6.07;2.97;;;14.70;44.50;;;;;;5106155;27;20531;-87
2022/03/18 10:39:33;;;;;;;7.50;3.27;;;15.10;44.40;;;;;;5114519;27;20441;-86
2022/03/18 10:42:02;;;;;;;5.27;3.20;;;15.60;43.50;;;;;;5102146;27;20437;-86
2022/03/18 10:44:32;;;;;;;8.10;3.93;;;15.50;41.70;;;;;;5104153;27;20483;-87
2022/03/18 10:46:59;;;;;;;7.13;4.03;;;15.30;42.20;;;;;;5108295;27;20442;-89
2022/03/18 10:49:28;;;;;;;6.90;3.10;;;15.40;42.50;;;;;;5117496;27;20457;-88
2022/03/18 10:52:08;;;;;;;9.33;3.70;;;15.30;42.00;;;;;;5110765;27;20456;-88
2022/03/18 10:54:35;;;;;;;9.67;4.23;;;15.30;42.60;;;;;;5129488;27;20465;-85
2022/03/18 10:57:03;;;;;;;8.77;3.40;;;15.50;43.50;;;;;;5110148;27;20519;-87
2022/03/18 10:59:32;;;;;;;6.50;4.03;;;15.70;43.00;;;;;;5099760;27;20935;-86
2022/03/18 11:02:00;;;;;;;6.40;3.80;;;16.10;41.30;;;;;;5127767;27;20560;-86
2022/03/18 11:04:28;;;;;;;7.37;4.10;;;16.20;41.50;;;;;;5118610;27;20504;-87
2022/03/18 11:12:31;;;;;;;7.03;4.70;;;16.10;41.20;;;;;;5109989;27;20441;-88
2022/03/18 11:15:00;;;;;;;7.27;4.23;;;15.80;41.10;;;;;;5126045;27;20874;-88
2022/03/18 11:17:28;;;;;;;9.90;4.67;;;15.60;41.00;;;;;;5106687;27;20458;-87
2022/03/18 11:19:55;;;;;;;6.10;4.20;;;15.30;41.70;;;;;;5127092;27;20449;-88
2022/03/18 11:22:23;;;;;;;10.70;4.50;;;15.10;42.60;;;;;;5113413;27;20452;-88
2022/03/18 11:24:52;;;;;;;6.13;4.37;;;15.30;43.30;;;;;;5094032;27;20528;-89
2022/03/18 11:27:20;;;;;;;6.30;3.90;;;15.60;43.70;;;;;;5093707;27;20448;-87
2022/03/18 11:29:47;;;;;;;9.90;4.17;;;15.80;42.20;;;;;;5112336;27;21059;-88
2022/03/18 11:32:22;;;;;;;6.67;4.17;;;16.00;42.20;;;;;;5103026;27;20450;-90
2022/03/18 11:34:51;;;;;;;10.77;3.97;;;16.10;41.30;;;;;;5110213;27;20975;-90
2022/03/18 11:37:19;;;;;;;6.97;3.93;;;16.00;41.60;;;;;;5113524;27;20753;-89
2022/03/18 11:39:47;;;;;;;6.33;4.40;;;15.80;41.50;;;;;;5098962;27;20528;-90
2022/03/18 11:42:21;;;;;;;7.83;3.70;;;16.00;41.80;;;;;;5132398;27;20967;-89
2022/03/18 11:44:55;;;;;;;6.37;4.10;;;16.10;41.70;;;;;;5091556;27;20850;-86
2022/03/18 11:47:45;;;;;;;5.43;3.90;;;15.80;41.30;;;;;;5113089;27;20438;-90
2022/03/18 11:50:38;;;;;;;7.83;4.60;;;15.60;42.10;;;;;;5085464;27;20465;-89
2022/03/18 11:53:05;;;;;;;6.87;4.33;;;15.60;42.40;;;;;;5121916;27;20453;-90
2022/03/18 11:55:32;;;;;;;9.30;4.03;;;15.60;42.80;;;;;;5096164;27;20658;-88
2022/03/18 11:57:59;;;;;;;7.07;4.30;;;15.70;42.10;;;;;;5110904;27;20441;-85
2022/03/18 12:00:46;;;;;;;12.07;4.30;;;16.00;41.90;;;;;;5109426;27;20445;-88
2022/03/18 12:03:21;;;;;;;4.67;3.87;;;16.10;41.60;;;;;;5127984;27;20457;-88
2022/03/18 12:05:57;;;;;;;9.30;4.53;;;16.50;41.00;;;;;;5097793;27;20593;-85
2022/03/18 12:08:59;;;;;;;10.60;4.70;;;16.30;40.40;;;;;;5099989;27;20536;-88
2022/03/18 12:11:32;;;;;;;8.20;4.90;;;16.20;40.90;;;;;;5110741;27;20487;-88
2022/03/18 12:14:00;;;;;;;7.63;4.00;;;16.30;40.60;;;;;;5110708;27;20473;-88
2022/03/18 12:16:28;;;;;;;8.17;4.90;;;16.70;41.20;;;;;;5114818;27;20433;-87
2022/03/18 12:18:59;;;;;;;8.60;5.40;;;16.90;40.20;;;;;;5130803;27;22407;-89
2022/03/18 12:21:34;;;;;;;10.30;4.90;;;16.90;39.30;;;;;;5112140;27;20445;-87
2022/03/18 12:24:06;;;;;;;9.83;6.27;;;16.50;40.30;;;;;;5094482;27;20522;-87
2022/03/18 12:26:35;;;;;;;13.83;8.03;;;16.60;40.90;;;;;;5112485;27;20542;-88
2022/03/18 12:29:03;;;;;;;13.07;7.77;;;16.70;39.70;;;;;;5102645;27;20582;-87
2022/03/18 12:31:30;;;;;;;11.17;5.77;;;16.60;39.50;;;;;;5112313;27;20999;-87
2022/03/18 12:33:59;;;;;;;10.67;5.30;;;16.70;40.40;;;;;;5102596;27;20483;-84
2022/03/18 12:36:27;;;;;;;10.03;5.60;;;16.80;40.40;;;;;;5103739;27;20429;-87
2022/03/18 12:39:06;;;;;;;9.67;4.97;;;16.50;40.60;;;;;;5127368;27;20445;-87
2022/03/18 12:41:33;;;;;;;11.87;4.90;;;16.40;41.20;;;;;;5111791;27;20457;-89
2022/03/18 12:44:00;;;;;;;6.53;4.10;;;16.40;40.90;;;;;;5095687;27;20474;-87
2022/03/18 12:46:29;;;;;;;9.13;5.73;;;16.50;41.50;;;;;;5113097;27;20986;-89
2022/03/18 12:48:56;;;;;;;10.23;6.20;;;16.50;41.10;;;;;;5113634;27;20448;-86
2022/03/18 12:51:25;;;;;;;9.13;5.90;;;16.70;40.80;;;;;;5093545;27;20461;-87
2022/03/18 12:53:52;;;;;;;9.70;5.70;;;16.90;41.00;;;;;;5110130;27;20449;-88
2022/03/18 12:56:44;;;;;;;31.93;7.23;;;17.10;40.20;;;;;;5129078;27;20996;-87
2022/03/18 12:59:15;;;;;;;7.57;5.70;;;16.90;40.70;;;;;;5130617;27;20589;-86
2022/03/18 13:01:54;;;;;;;9.60;5.03;;;16.80;40.40;;;;;;5131027;27;20446;-87
2022/03/18 13:04:22;;;;;;;10.93;5.57;;;16.80;41.00;;;;;;5109879;27;20480;-87
2022/03/18 13:06:57;;;;;;;7.93;5.40;;;17.00;40.70;;;;;;5128980;27;20453;-87
2022/03/18 13:09:24;;;;;;;6.50;4.70;;;17.00;40.30;;;;;;5129784;27;20445;-88
2022/03/18 13:11:52;;;;;;;12.53;6.13;;;17.10;40.90;;;;;;5095314;27;20479;-88
2022/03/18 13:14:34;;;;;;;9.73;6.30;;;17.30;40.50;;;;;;5128217;27;20468;-88
2022/03/18 13:17:03;;;;;;;11.13;6.37;;;17.50;40.20;;;;;;5113112;27;20457;-86
2022/03/18 13:19:38;;;;;;;8.73;6.23;;;17.70;39.50;;;;;;5128597;27;20454;-87
2022/03/18 13:22:06;;;;;;;12.47;6.30;;;17.60;40.20;;;;;;5112080;27;20480;-85
2022/03/18 13:24:34;;;;;;;8.87;5.90;;;17.70;39.60;;;;;;5128464;27;20472;-86